createdAt,value
2023-05-14T00:00:02.108Z,1000.00
2023-05-14T00:01:02.128Z,1000.00
2023-05-14T00:02:02.182Z,1000.00
2023-05-14T00:03:02.254Z,1000.00
2023-05-14T00:04:02.297Z,1000.00
2023-05-14T00:05:02.245Z,1000.00
2023-05-14T00:06:02.259Z,1000.00
2023-05-14T00:07:02.262Z,1000.00
2023-05-14T00:08:02.323Z,1000.00
2023-05-14T00:09:02.328Z,1000.00
2023-05-14T00:10:02.319Z,1000.00
2023-05-14T00:11:02.310Z,1000.00
2023-05-14T00:12:02.367Z,1000.00
2023-05-14T00:13:02.435Z,1000.00
2023-05-14T00:14:02.474Z,1000.00
2023-05-14T00:15:02.523Z,1000.00
2023-05-14T00:16:02.564Z,1000.00
2023-05-14T00:17:02.538Z,1000.00
2023-05-14T00:18:02.584Z,1000.00
2023-05-14T00:19:02.659Z,1000.00
2023-05-14T00:20:02.654Z,1000.00
2023-05-14T00:21:02.672Z,1000.00
2023-05-14T00:22:02.718Z,1000.00
2023-05-14T00:23:02.738Z,1000.00
2023-05-14T00:24:02.726Z,1000.00
2023-05-14T00:25:02.781Z,1000.00
2023-05-14T00:26:02.805Z,1000.00
2023-05-14T00:27:02.866Z,1000.00
2023-05-14T00:28:02.897Z,1000.00
2023-05-14T00:29:02.943Z,1000.00
2023-05-14T00:30:03.013Z,1000.00
2023-05-14T00:31:03.041Z,1000.00
2023-05-14T00:32:03.045Z,1000.00
2023-05-14T00:33:03.129Z,1000.00
2023-05-14T00:34:03.186Z,1000.00
2023-05-14T00:35:03.256Z,1000.00
2023-05-14T00:36:03.302Z,1000.00
2023-05-14T00:37:03.365Z,1000.00
2023-05-14T00:38:03.379Z,1000.00
2023-05-14T00:39:03.449Z,1000.00
2023-05-14T00:40:03.485Z,1000.00
2023-05-14T00:41:03.485Z,1000.00
2023-05-14T00:42:03.508Z,1000.00
2023-05-14T00:43:03.527Z,1000.00
2023-05-14T00:44:03.543Z,1000.00
2023-05-14T00:45:03.569Z,1000.00
2023-05-14T00:46:03.604Z,1000.00
2023-05-14T00:47:03.679Z,1000.00
2023-05-14T00:48:03.744Z,1000.00
2023-05-14T00:49:03.652Z,1000.00
2023-05-14T00:50:03.739Z,1000.00
2023-05-14T00:51:03.727Z,1000.00
2023-05-14T00:52:03.734Z,1000.00
2023-05-14T00:53:03.784Z,1000.00
2023-05-14T00:54:03.824Z,1000.00
2023-05-14T00:55:03.854Z,1000.00
2023-05-14T00:56:03.868Z,1000.00
2023-05-14T00:57:03.913Z,1000.00
2023-05-14T00:58:03.934Z,1000.00
2023-05-14T00:59:03.976Z,1000.00
2023-05-14T01:00:04.006Z,1000.00
2023-05-14T01:01:04.118Z,1000.00
2023-05-14T01:02:04.049Z,1000.00
2023-05-14T01:03:04.182Z,1000.00
2023-05-14T01:04:04.151Z,1000.00
2023-05-14T01:05:04.153Z,1000.00
2023-05-14T01:06:04.169Z,1000.00
2023-05-14T01:07:04.219Z,1000.00
2023-05-14T01:08:04.208Z,1000.00
2023-05-14T01:09:04.278Z,1000.00
2023-05-14T01:10:04.300Z,1000.00
2023-05-14T01:11:04.298Z,1000.00
2023-05-14T01:12:04.279Z,1000.00
2023-05-14T01:13:04.303Z,1000.00
2023-05-14T01:14:04.389Z,1000.00
2023-05-14T01:15:04.417Z,1000.00
2023-05-14T01:16:04.467Z,1000.00
2023-05-14T01:17:04.520Z,1000.00
2023-05-14T01:18:04.564Z,1000.00
2023-05-14T01:19:04.564Z,1000.00
2023-05-14T01:20:04.575Z,1000.00
2023-05-14T01:21:04.580Z,1000.00
2023-05-14T01:22:04.602Z,1000.00
2023-05-14T01:23:04.624Z,1000.00
2023-05-14T01:24:04.638Z,1000.00
2023-05-14T01:25:04.626Z,1000.00
2023-05-14T01:26:04.661Z,1000.00
2023-05-14T01:27:04.665Z,1000.00
2023-05-14T01:28:04.670Z,1000.00
2023-05-14T01:29:04.796Z,1000.00
2023-05-14T01:30:04.832Z,1000.00
2023-05-14T01:31:04.866Z,1000.00
2023-05-14T01:32:05.056Z,1000.00
2023-05-14T01:33:04.979Z,1000.00
2023-05-14T01:34:04.958Z,1000.00
2023-05-14T01:35:05.018Z,1000.00
2023-05-14T01:36:05.006Z,1000.00
2023-05-14T01:37:05.029Z,1000.00
2023-05-14T01:38:05.058Z,1000.00
2023-05-14T01:39:05.087Z,1000.00
2023-05-14T01:40:05.099Z,1000.00
2023-05-14T01:41:05.146Z,1000.00
2023-05-14T01:42:05.139Z,1000.00
2023-05-14T01:43:05.260Z,1000.00
2023-05-14T01:44:05.218Z,1000.00
2023-05-14T01:45:05.200Z,1000.00
2023-05-14T01:46:05.275Z,1000.00
2023-05-14T01:47:05.221Z,1000.00
2023-05-14T01:48:05.311Z,1000.00
2023-05-14T01:49:05.248Z,1000.00
2023-05-14T01:50:05.292Z,1000.00
2023-05-14T01:51:05.298Z,1000.00
2023-05-14T01:52:05.337Z,1000.00
2023-05-14T01:53:05.356Z,1000.00
2023-05-14T01:54:05.356Z,1000.00
2023-05-14T01:55:05.384Z,1000.00
2023-05-14T01:56:05.399Z,1000.00
2023-05-14T01:57:05.463Z,1000.00
2023-05-14T01:58:05.502Z,1000.00
2023-05-14T01:59:05.554Z,1000.00
2023-05-14T02:00:05.587Z,1000.00
2023-05-14T02:01:05.626Z,1000.00
2023-05-14T02:02:05.577Z,1000.00
2023-05-14T02:03:05.704Z,1000.00
2023-05-14T02:04:05.689Z,1000.00
2023-05-14T02:05:07.040Z,1000.00
2023-05-14T02:06:05.710Z,1000.00
2023-05-14T02:07:05.748Z,1000.00
2023-05-14T02:08:05.780Z,1000.00
2023-05-14T02:09:05.843Z,1000.00
2023-05-14T02:10:06.416Z,1000.00
2023-05-14T02:11:05.895Z,1000.00
2023-05-14T02:12:05.888Z,1000.00
2023-05-14T02:13:05.913Z,1000.00
2023-05-14T02:14:05.938Z,1000.00
2023-05-14T02:15:05.990Z,1000.00
2023-05-14T02:16:06.057Z,1000.00
2023-05-14T02:17:06.042Z,1000.00
2023-05-14T02:18:06.090Z,1000.00
2023-05-14T02:19:06.134Z,1000.00
2023-05-14T02:20:06.096Z,1000.00
2023-05-14T02:21:06.118Z,1000.00
2023-05-14T02:22:06.077Z,1000.00
2023-05-14T02:23:06.146Z,1000.00
2023-05-14T02:24:06.196Z,1000.00
2023-05-14T02:25:06.232Z,1000.00
2023-05-14T02:26:06.356Z,1000.00
2023-05-14T02:27:06.330Z,1000.00
2023-05-14T02:28:06.305Z,1000.00
2023-05-14T02:29:06.320Z,1000.00
2023-05-14T02:30:06.321Z,1000.00
2023-05-14T02:31:06.394Z,1000.00
2023-05-14T02:32:06.416Z,1000.00
2023-05-14T02:33:06.489Z,1000.00
2023-05-14T02:34:06.429Z,1000.00
2023-05-14T02:35:06.421Z,1000.00
2023-05-14T02:36:06.433Z,1000.00
2023-05-14T02:37:06.462Z,1000.00
2023-05-14T02:38:06.481Z,1000.00
2023-05-14T02:39:06.544Z,1000.00
2023-05-14T02:40:06.569Z,1000.00
2023-05-14T02:41:06.558Z,1000.00
2023-05-14T02:42:06.566Z,1000.00
2023-05-14T02:43:06.616Z,1000.00
2023-05-14T02:44:06.614Z,1000.00
2023-05-14T02:45:06.635Z,1000.00
2023-05-14T02:46:06.632Z,1000.00
2023-05-14T02:47:06.705Z,1000.00
2023-05-14T02:48:06.763Z,1000.00
2023-05-14T02:49:06.706Z,1000.00
2023-05-14T02:50:06.736Z,1000.00
2023-05-14T02:51:06.774Z,1000.00
2023-05-14T02:52:06.784Z,1000.00
2023-05-14T02:53:06.776Z,1000.00
2023-05-14T02:54:06.782Z,1000.00
2023-05-14T02:55:06.840Z,1000.00
2023-05-14T02:56:06.910Z,1000.00
2023-05-14T02:57:06.896Z,1000.00
2023-05-14T02:58:06.894Z,1000.00
2023-05-14T02:59:06.918Z,1000.00
2023-05-14T03:00:07.006Z,1000.00
2023-05-14T03:01:07.129Z,1000.00
2023-05-14T03:02:07.050Z,1000.00
2023-05-14T03:03:07.090Z,1000.00
2023-05-14T03:04:07.066Z,1000.00
2023-05-14T03:05:07.079Z,1000.00
2023-05-14T03:06:07.071Z,1000.00
2023-05-14T03:07:07.090Z,1000.00
2023-05-14T03:08:07.132Z,1000.00
2023-05-14T03:09:07.161Z,1000.00
2023-05-14T03:10:07.221Z,1000.00
2023-05-14T03:11:07.268Z,1000.00
2023-05-14T03:12:07.274Z,1000.00
2023-05-14T03:13:07.332Z,1000.00
2023-05-14T03:14:07.381Z,1000.00
2023-05-14T03:15:07.487Z,1000.00
2023-05-14T03:16:07.452Z,1000.00
2023-05-14T03:17:07.576Z,1000.00
2023-05-14T03:18:07.524Z,1000.00
2023-05-14T03:19:07.599Z,1000.00
2023-05-14T03:20:07.537Z,1000.00
2023-05-14T03:21:07.595Z,1000.00
2023-05-14T03:22:07.613Z,1000.00
2023-05-14T03:23:07.638Z,1000.00
2023-05-14T03:24:07.663Z,1000.00
2023-05-14T03:25:07.697Z,1000.00
2023-05-14T03:26:07.722Z,1000.00
2023-05-14T03:27:07.738Z,1000.00
2023-05-14T03:28:07.806Z,1000.00
2023-05-14T03:29:07.837Z,1000.00
2023-05-14T03:30:07.837Z,1000.00
2023-05-14T03:31:07.913Z,1000.00
2023-05-14T03:32:07.911Z,1000.00
2023-05-14T03:33:07.906Z,1000.00
2023-05-14T03:34:07.912Z,1000.00
2023-05-14T03:35:07.955Z,1000.00
2023-05-14T03:36:07.977Z,1000.00
2023-05-14T03:37:07.985Z,1000.00
2023-05-14T03:38:07.971Z,1000.00
2023-05-14T03:39:07.985Z,1000.00
2023-05-14T03:40:08.049Z,1000.00
2023-05-14T03:41:08.092Z,1000.00
2023-05-14T03:42:08.117Z,1000.00
2023-05-14T03:43:08.138Z,1000.00
2023-05-14T03:44:08.118Z,1000.00
2023-05-14T03:45:08.194Z,1000.00
2023-05-14T03:46:08.207Z,1000.00
2023-05-14T03:47:08.267Z,1000.00
2023-05-14T03:48:08.386Z,1000.00
2023-05-14T03:49:08.338Z,1000.00
2023-05-14T03:50:08.328Z,1000.00
2023-05-14T03:51:08.355Z,1000.00
2023-05-14T03:52:08.347Z,1000.00
2023-05-14T03:53:08.353Z,1000.00
2023-05-14T03:54:08.382Z,1000.00
2023-05-14T03:55:08.385Z,1000.00
2023-05-14T03:56:08.407Z,1000.00
2023-05-14T03:57:08.420Z,1000.00
2023-05-14T03:58:08.436Z,1000.00
2023-05-14T03:59:08.408Z,1000.00
2023-05-14T04:00:08.472Z,1000.00
2023-05-14T04:01:08.447Z,1000.00
2023-05-14T04:02:08.453Z,1000.00
2023-05-14T04:03:08.540Z,1000.00
2023-05-14T04:04:08.588Z,1000.00
2023-05-14T04:05:08.513Z,1000.00
2023-05-14T04:06:08.546Z,1000.00
2023-05-14T04:07:08.547Z,1000.00
2023-05-14T04:08:08.557Z,1000.00
2023-05-14T04:09:08.597Z,1000.00
2023-05-14T04:10:08.616Z,1000.00
2023-05-14T04:11:08.632Z,1000.00
2023-05-14T04:12:08.675Z,1000.00
2023-05-14T04:13:08.704Z,1000.00
2023-05-14T04:14:08.730Z,1000.00
2023-05-14T04:15:08.758Z,1000.00
2023-05-14T04:16:08.782Z,1000.00
2023-05-14T04:17:08.783Z,1000.00
2023-05-14T04:18:08.850Z,1000.00
2023-05-14T04:19:08.847Z,1000.00
2023-05-14T04:20:08.846Z,1000.00
2023-05-14T04:21:08.908Z,1000.00
2023-05-14T04:22:08.904Z,1000.00
2023-05-14T04:23:08.919Z,1000.00
2023-05-14T04:24:08.958Z,1000.00
2023-05-14T04:25:08.970Z,1000.00
2023-05-14T04:26:09.006Z,1000.00
2023-05-14T04:27:09.038Z,1000.00
2023-05-14T04:28:09.001Z,1000.00
2023-05-14T04:29:09.029Z,1000.00
2023-05-14T04:30:09.055Z,1000.00
2023-05-14T04:31:09.084Z,1000.00
2023-05-14T04:32:09.107Z,1000.00
2023-05-14T04:33:09.123Z,1000.00
2023-05-14T04:34:09.089Z,1000.00
2023-05-14T04:35:09.125Z,1000.00
2023-05-14T04:36:09.426Z,1000.00
2023-05-14T04:37:09.120Z,1000.00
2023-05-14T04:38:09.136Z,1000.00
2023-05-14T04:39:09.154Z,1000.00
2023-05-14T04:40:09.158Z,1000.00
2023-05-14T04:41:09.164Z,1000.00
2023-05-14T04:42:09.148Z,1000.00
2023-05-14T04:43:09.200Z,1000.00
2023-05-14T04:44:09.315Z,1000.00
2023-05-14T04:45:09.371Z,1000.00
2023-05-14T04:46:09.500Z,1000.00
2023-05-14T04:47:09.401Z,1000.00
2023-05-14T04:48:09.537Z,1000.00
2023-05-14T04:49:09.456Z,1000.00
2023-05-14T04:50:09.481Z,1000.00
2023-05-14T04:51:09.471Z,1000.00
2023-05-14T04:52:09.527Z,1000.00
2023-05-14T04:53:09.527Z,1000.00
2023-05-14T04:54:09.591Z,1000.00
2023-05-14T04:55:09.582Z,1000.00
2023-05-14T04:56:09.610Z,1000.00
2023-05-14T04:57:09.625Z,1000.00
2023-05-14T04:58:09.653Z,1000.00
2023-05-14T04:59:09.667Z,1000.00
2023-05-14T05:00:09.709Z,1000.00
2023-05-14T05:01:09.755Z,1000.00
2023-05-14T05:02:09.767Z,1000.00
2023-05-14T05:03:09.892Z,1000.00
2023-05-14T05:04:09.894Z,1000.00
2023-05-14T05:05:09.898Z,1000.00
2023-05-14T05:06:09.949Z,1000.00
2023-05-14T05:07:09.999Z,1000.00
2023-05-14T05:08:10.045Z,1000.00
2023-05-14T05:09:10.074Z,1000.00
2023-05-14T05:10:10.090Z,1000.00
2023-05-14T05:11:10.131Z,1000.00
2023-05-14T05:12:10.161Z,1000.00
2023-05-14T05:13:10.164Z,1000.00
2023-05-14T05:14:10.202Z,1000.00
2023-05-14T05:15:10.249Z,1000.00
2023-05-14T05:16:10.326Z,1000.00
2023-05-14T05:17:10.309Z,1000.00
2023-05-14T05:18:10.355Z,1000.00
2023-05-14T05:19:10.440Z,1000.00
2023-05-14T05:20:10.391Z,1000.00
2023-05-14T05:21:10.387Z,1000.00
2023-05-14T05:22:10.512Z,1000.00
2023-05-14T05:23:10.464Z,1000.00
2023-05-14T05:24:10.492Z,1000.00
2023-05-14T05:25:10.568Z,1000.00
2023-05-14T05:26:10.606Z,1000.00
2023-05-14T05:27:10.664Z,1000.00
2023-05-14T05:28:10.748Z,1000.00
2023-05-14T05:29:10.785Z,1000.00
2023-05-14T05:30:10.859Z,1000.00
2023-05-14T05:31:10.944Z,1000.00
2023-05-14T05:32:10.890Z,1000.00
2023-05-14T05:33:10.957Z,1000.00
2023-05-14T05:34:10.945Z,1000.00
2023-05-14T05:35:10.971Z,1000.00
2023-05-14T05:36:11.039Z,1000.00
2023-05-14T05:37:11.089Z,1000.00
2023-05-14T05:38:11.132Z,1000.00
2023-05-14T05:39:11.130Z,1000.00
2023-05-14T05:40:11.251Z,1000.00
2023-05-14T05:41:11.272Z,1000.00
2023-05-14T05:42:11.279Z,1000.00
2023-05-14T05:43:11.271Z,1000.00
2023-05-14T05:44:11.293Z,1000.00
2023-05-14T05:45:11.330Z,1000.00
2023-05-14T05:46:11.469Z,1000.00
2023-05-14T05:47:11.375Z,1000.00
2023-05-14T05:48:11.378Z,1000.00
2023-05-14T05:49:11.377Z,1000.00
2023-05-14T05:50:11.472Z,1000.00
2023-05-14T05:51:11.452Z,1000.00
2023-05-14T05:52:11.503Z,1000.00
2023-05-14T05:53:11.535Z,1000.00
2023-05-14T05:54:11.565Z,1000.00
2023-05-14T05:55:11.628Z,1000.00
2023-05-14T05:56:11.628Z,1000.00
2023-05-14T05:57:11.664Z,1000.00
2023-05-14T05:58:11.686Z,1000.00
2023-05-14T05:59:11.725Z,1000.00
2023-05-14T06:00:11.798Z,1000.00
2023-05-14T06:01:11.887Z,1000.00
2023-05-14T06:02:11.925Z,1000.00
2023-05-14T06:03:11.963Z,1000.00
2023-05-14T06:04:11.934Z,1000.00
2023-05-14T06:05:12.031Z,1000.00
2023-05-14T06:06:12.001Z,1000.00
2023-05-14T06:07:12.009Z,1000.00
2023-05-14T06:08:12.037Z,1000.00
2023-05-14T06:09:12.065Z,1000.00
2023-05-14T06:10:13.005Z,1000.00
2023-05-14T06:11:12.484Z,1000.00
2023-05-14T06:12:12.158Z,1000.00
2023-05-14T06:13:12.221Z,1000.00
2023-05-14T06:14:12.267Z,1000.00
2023-05-14T06:15:12.267Z,1000.00
2023-05-14T06:16:12.313Z,1000.00
2023-05-14T06:17:12.287Z,1000.00
2023-05-14T06:18:12.296Z,1000.00
2023-05-14T06:19:12.429Z,1000.00
2023-05-14T06:20:12.367Z,1000.00
2023-05-14T06:21:12.389Z,1000.00
2023-05-14T06:22:12.410Z,1000.00
2023-05-14T06:23:12.502Z,1000.00
2023-05-14T06:24:12.447Z,1000.00
2023-05-14T06:25:12.496Z,1000.00
2023-05-14T06:26:12.517Z,1000.00
2023-05-14T06:27:12.531Z,1000.00
2023-05-14T06:28:12.572Z,1000.00
2023-05-14T06:29:12.617Z,1000.00
2023-05-14T06:30:12.645Z,1000.00
2023-05-14T06:31:12.626Z,1000.00
2023-05-14T06:32:12.799Z,1000.00
2023-05-14T06:33:12.692Z,1000.00
2023-05-14T06:34:12.761Z,1000.00
2023-05-14T06:35:12.787Z,1000.00
2023-05-14T06:36:12.813Z,1000.00
2023-05-14T06:37:12.837Z,1000.00
2023-05-14T06:38:12.867Z,1000.00
2023-05-14T06:39:12.886Z,1000.00
2023-05-14T06:40:12.959Z,1000.00
2023-05-14T06:41:12.997Z,1000.00
2023-05-14T06:42:12.982Z,1000.00
2023-05-14T06:43:13.053Z,1000.00
2023-05-14T06:44:13.061Z,1000.00
2023-05-14T06:45:13.088Z,1000.00
2023-05-14T06:46:13.127Z,1000.00
2023-05-14T06:47:13.166Z,1000.00
2023-05-14T06:48:13.266Z,1000.00
2023-05-14T06:49:13.365Z,920.27
2023-05-14T06:50:13.284Z,1000.00
2023-05-14T06:51:13.379Z,858.52
2023-05-14T06:52:13.331Z,594.51
2023-05-14T06:53:13.384Z,531.87
2023-05-14T06:54:13.414Z,456.34
2023-05-14T06:55:13.410Z,483.26
2023-05-14T06:56:13.445Z,612.66
2023-05-14T06:57:13.449Z,771.44
2023-05-14T06:58:13.484Z,816.36
2023-05-14T06:59:13.513Z,828.55
2023-05-14T07:00:13.518Z,795.13
2023-05-14T07:01:13.593Z,737.50
2023-05-14T07:02:13.549Z,788.51
2023-05-14T07:03:13.565Z,867.90
2023-05-14T07:04:13.635Z,921.87
2023-05-14T07:05:13.672Z,917.29
2023-05-14T07:06:13.773Z,871.95
2023-05-14T07:07:13.732Z,498.11
2023-05-14T07:08:13.747Z,421.32
2023-05-14T07:09:13.781Z,388.68
2023-05-14T07:10:13.857Z,422.32
2023-05-14T07:11:13.866Z,541.10
2023-05-14T07:12:13.914Z,551.55
2023-05-14T07:13:13.967Z,560.06
2023-05-14T07:14:13.985Z,520.55
2023-05-14T07:15:14.051Z,541.21
2023-05-14T07:16:14.089Z,452.40
2023-05-14T07:17:14.186Z,317.55
2023-05-14T07:18:14.182Z,331.71
2023-05-14T07:19:14.300Z,318.01
2023-05-14T07:20:14.212Z,343.68
2023-05-14T07:21:14.255Z,466.51
2023-05-14T07:22:14.260Z,646.21
2023-05-14T07:23:14.299Z,619.82
2023-05-14T07:24:14.265Z,623.54
2023-05-14T07:25:14.296Z,590.93
2023-05-14T07:26:14.350Z,563.43
2023-05-14T07:27:14.413Z,570.00
2023-05-14T07:28:14.989Z,608.05
2023-05-14T07:29:14.432Z,560.73
2023-05-14T07:30:14.441Z,515.00
2023-05-14T07:31:14.467Z,502.71
2023-05-14T07:32:15.669Z,492.91
2023-05-14T07:33:14.509Z,433.37
2023-05-14T07:34:14.515Z,323.93
2023-05-14T07:35:14.520Z,295.44
2023-05-14T07:36:14.548Z,298.53
2023-05-14T07:37:14.529Z,300.67
2023-05-14T07:38:14.561Z,332.89
2023-05-14T07:39:14.599Z,339.54
2023-05-14T07:40:14.620Z,366.47
2023-05-14T07:41:14.669Z,268.30
2023-05-14T07:42:24.572Z,159.75
2023-05-14T07:43:15.710Z,73.80
2023-05-14T07:44:14.692Z,55.82
2023-05-14T07:45:14.677Z,62.97
2023-05-14T07:46:14.668Z,75.13
2023-05-14T07:47:14.690Z,105.57
2023-05-14T07:48:14.803Z,113.60
2023-05-14T07:49:14.656Z,146.04
2023-05-14T07:50:14.645Z,182.49
2023-05-14T07:51:14.646Z,170.99
2023-05-14T07:52:14.626Z,155.49
2023-05-14T07:53:14.630Z,105.56
2023-05-14T07:54:14.613Z,64.03
2023-05-14T07:55:14.603Z,38.11
2023-05-14T07:56:14.649Z,25.76
2023-05-14T07:57:14.706Z,19.50
2023-05-14T07:58:14.711Z,16.74
2023-05-14T07:59:14.766Z,21.02
2023-05-14T08:00:14.827Z,24.30
2023-05-14T08:01:14.874Z,26.32
2023-05-14T08:02:14.949Z,21.72
2023-05-14T08:03:15.139Z,18.51
2023-05-14T08:04:15.027Z,27.43
2023-05-14T08:05:15.061Z,30.43
2023-05-14T08:06:15.108Z,31.68
2023-05-14T08:07:15.187Z,36.73
2023-05-14T08:08:15.186Z,51.82
2023-05-14T08:09:15.255Z,53.51
2023-05-14T08:10:15.329Z,54.49
2023-05-14T08:11:15.388Z,35.73
2023-05-14T08:12:15.382Z,27.06
2023-05-14T08:13:15.473Z,23.59
2023-05-14T08:14:15.510Z,15.13
2023-05-14T08:15:15.595Z,8.19
2023-05-14T08:16:15.647Z,4.60
2023-05-14T08:17:15.716Z,3.23
2023-05-14T08:18:15.711Z,2.43
2023-05-14T08:19:15.804Z,2.70
2023-05-14T08:20:15.761Z,3.44
2023-05-14T08:21:15.747Z,5.86
2023-05-14T08:22:15.755Z,10.61
2023-05-14T08:23:15.785Z,13.09
2023-05-14T08:24:15.823Z,7.44
2023-05-14T08:25:15.872Z,2.63
2023-05-14T08:26:15.863Z,2.04
2023-05-14T08:27:15.906Z,2.57
2023-05-14T08:28:15.922Z,2.28
2023-05-14T08:29:16.700Z,2.99
2023-05-14T08:30:16.009Z,6.26
2023-05-14T08:31:16.067Z,6.59
2023-05-14T08:32:23.258Z,6.19
2023-05-14T08:33:17.062Z,5.13
2023-05-14T08:34:16.020Z,3.14
2023-05-14T08:35:16.025Z,2.41
2023-05-14T08:36:16.015Z,2.30
2023-05-14T08:37:15.987Z,1.37
2023-05-14T08:38:15.989Z,0.99
2023-05-14T08:39:15.988Z,0.89
2023-05-14T08:40:15.960Z,1.11
2023-05-14T08:41:15.970Z,1.54
2023-05-14T08:42:15.969Z,1.55
2023-05-14T08:43:15.953Z,1.12
2023-05-14T08:44:15.960Z,0.56
2023-05-14T08:45:15.967Z,0.34
2023-05-14T08:46:15.996Z,0.34
2023-05-14T08:47:16.053Z,0.52
2023-05-14T08:48:16.160Z,0.50
2023-05-14T08:49:16.137Z,0.50
2023-05-14T08:50:16.164Z,0.60
2023-05-14T08:51:16.185Z,0.67
2023-05-14T08:52:16.233Z,0.88
2023-05-14T08:53:16.241Z,0.98
2023-05-14T08:54:16.284Z,0.85
2023-05-14T08:55:16.349Z,0.77
2023-05-14T08:56:16.404Z,1.20
2023-05-14T08:57:16.471Z,1.34
2023-05-14T08:58:16.483Z,1.30
2023-05-14T08:59:16.532Z,0.87
2023-05-14T09:00:16.573Z,0.83
2023-05-14T09:01:16.648Z,1.10
2023-05-14T09:02:16.639Z,1.42
2023-05-14T09:03:16.735Z,1.70
2023-05-14T09:04:16.736Z,1.83
2023-05-14T09:05:16.717Z,2.59
2023-05-14T09:06:16.751Z,4.39
2023-05-14T09:07:16.820Z,2.29
2023-05-14T09:08:16.851Z,1.14
2023-05-14T09:09:16.876Z,0.59
2023-05-14T09:10:17.516Z,0.54
2023-05-14T09:11:16.967Z,0.57
2023-05-14T09:12:16.996Z,0.61
2023-05-14T09:13:17.020Z,0.70
2023-05-14T09:14:17.078Z,1.09
2023-05-14T09:15:17.120Z,1.11
2023-05-14T09:16:17.211Z,2.11
2023-05-14T09:17:17.185Z,3.34
2023-05-14T09:18:17.186Z,2.20
2023-05-14T09:19:17.265Z,1.79
2023-05-14T09:20:17.255Z,1.34
2023-05-14T09:21:17.292Z,1.27
2023-05-14T09:22:17.326Z,1.39
2023-05-14T09:23:17.347Z,1.04
2023-05-14T09:24:17.321Z,0.97
2023-05-14T09:25:17.320Z,1.49
2023-05-14T09:26:17.360Z,1.03
2023-05-14T09:27:17.421Z,0.79
2023-05-14T09:28:17.532Z,0.82
2023-05-14T09:29:17.519Z,0.95
2023-05-14T09:30:17.544Z,1.17
2023-05-14T09:31:17.609Z,1.32
2023-05-14T09:32:17.612Z,1.60
2023-05-14T09:33:17.639Z,1.99
2023-05-14T09:34:17.705Z,2.41
2023-05-14T09:35:18.057Z,2.32
2023-05-14T09:36:17.859Z,3.89
2023-05-14T09:37:17.855Z,6.45
2023-05-14T09:38:17.878Z,6.63
2023-05-14T09:39:17.902Z,6.51
2023-05-14T09:40:17.933Z,5.96
2023-05-14T09:41:17.959Z,5.49
2023-05-14T09:42:18.002Z,4.41
2023-05-14T09:43:17.997Z,5.60
2023-05-14T09:44:18.035Z,4.57
2023-05-14T09:45:18.085Z,3.97
2023-05-14T09:46:18.067Z,2.53
2023-05-14T09:47:18.113Z,1.17
2023-05-14T09:48:18.142Z,1.02
2023-05-14T09:49:18.133Z,0.90
2023-05-14T09:50:18.190Z,1.72
2023-05-14T09:51:18.196Z,2.00
2023-05-14T09:52:18.249Z,1.75
2023-05-14T09:53:18.241Z,1.98
2023-05-14T09:54:18.299Z,2.87
2023-05-14T09:55:18.373Z,2.10
2023-05-14T09:56:18.370Z,1.14
2023-05-14T09:57:18.389Z,0.89
2023-05-14T09:58:18.405Z,0.90
2023-05-14T09:59:18.458Z,1.10
2023-05-14T10:00:18.477Z,1.25
2023-05-14T10:01:18.541Z,1.10
2023-05-14T10:02:18.557Z,0.81
2023-05-14T10:03:20.089Z,0.86
2023-05-14T10:04:18.680Z,1.37
2023-05-14T10:05:18.698Z,1.86
2023-05-14T10:06:18.749Z,2.89
2023-05-14T10:07:18.780Z,2.97
2023-05-14T10:08:18.773Z,2.12
2023-05-14T10:09:18.864Z,1.28
2023-05-14T10:10:18.885Z,1.36
2023-05-14T10:11:18.925Z,1.64
2023-05-14T10:12:18.948Z,2.38
2023-05-14T10:13:18.948Z,4.15
2023-05-14T10:14:18.981Z,4.69
2023-05-14T10:15:18.985Z,3.59
2023-05-14T10:16:19.071Z,2.16
2023-05-14T10:17:19.179Z,1.65
2023-05-14T10:18:19.256Z,1.44
2023-05-14T10:19:19.200Z,2.53
2023-05-14T10:20:19.237Z,2.65
2023-05-14T10:21:19.232Z,2.41
2023-05-14T10:22:19.241Z,2.76
2023-05-14T10:23:19.284Z,2.53
2023-05-14T10:24:19.339Z,3.10
2023-05-14T10:25:19.410Z,3.47
2023-05-14T10:26:20.148Z,2.84
2023-05-14T10:27:19.468Z,2.90
2023-05-14T10:28:19.464Z,5.22
2023-05-14T10:29:19.538Z,5.57
2023-05-14T10:30:19.534Z,2.67
2023-05-14T10:31:19.590Z,3.71
2023-05-14T10:32:19.642Z,3.63
2023-05-14T10:33:19.639Z,3.25
2023-05-14T10:34:19.702Z,2.84
2023-05-14T10:35:19.709Z,1.55
2023-05-14T10:36:19.729Z,1.53
2023-05-14T10:37:20.553Z,2.18
2023-05-14T10:38:19.770Z,1.64
2023-05-14T10:39:19.827Z,2.07
2023-05-14T10:40:19.861Z,2.94
2023-05-14T10:41:19.863Z,2.68
2023-05-14T10:42:19.920Z,3.11
2023-05-14T10:43:19.936Z,2.26
2023-05-14T10:44:19.952Z,3.49
2023-05-14T10:45:19.968Z,2.78
2023-05-14T10:46:20.067Z,3.03
2023-05-14T10:47:20.058Z,2.67
2023-05-14T10:48:20.108Z,3.12
2023-05-14T10:49:28.246Z,3.62
2023-05-14T10:50:21.092Z,3.67
2023-05-14T10:51:20.079Z,3.98
2023-05-14T10:52:20.069Z,4.50
2023-05-14T10:53:20.095Z,4.52
2023-05-14T10:54:20.068Z,4.90
2023-05-14T10:55:20.041Z,5.77
2023-05-14T10:56:20.059Z,7.40
2023-05-14T10:57:20.114Z,5.53
2023-05-14T10:58:20.043Z,3.99
2023-05-14T10:59:20.063Z,3.38
2023-05-14T11:00:20.034Z,3.54
2023-05-14T11:01:20.052Z,2.91
2023-05-14T11:02:20.125Z,4.48
2023-05-14T11:03:20.031Z,6.23
2023-05-14T11:04:20.025Z,8.46
2023-05-14T11:05:19.997Z,7.65
2023-05-14T11:06:20.006Z,8.69
2023-05-14T11:07:20.027Z,9.35
2023-05-14T11:08:20.043Z,3.24
2023-05-14T11:09:20.070Z,1.70
2023-05-14T11:10:20.153Z,1.64
2023-05-14T11:11:20.096Z,2.24
2023-05-14T11:12:20.128Z,1.92
2023-05-14T11:13:20.148Z,2.52
2023-05-14T11:14:20.205Z,2.60
2023-05-14T11:15:20.236Z,3.68
2023-05-14T11:16:23.740Z,2.18
2023-05-14T11:17:20.297Z,1.68
2023-05-14T11:18:20.240Z,1.69
2023-05-14T11:19:20.261Z,1.88
2023-05-14T11:20:20.220Z,2.51
2023-05-14T11:21:20.301Z,1.95
2023-05-14T11:22:20.219Z,2.13
2023-05-14T11:23:20.208Z,2.95
2023-05-14T11:24:20.197Z,3.26
2023-05-14T11:25:20.224Z,2.65
2023-05-14T11:26:21.812Z,1.93
2023-05-14T11:27:20.185Z,1.59
2023-05-14T11:28:20.178Z,2.76
2023-05-14T11:29:20.167Z,3.87
2023-05-14T11:30:20.219Z,6.77
2023-05-14T11:31:20.200Z,4.04
2023-05-14T11:32:20.147Z,3.99
2023-05-14T11:33:20.188Z,5.36
2023-05-14T11:34:20.167Z,7.24
2023-05-14T11:35:20.142Z,5.22
2023-05-14T11:36:20.142Z,5.77
2023-05-14T11:37:20.135Z,6.08
2023-05-14T11:38:20.137Z,5.15
2023-05-14T11:39:20.117Z,4.79
2023-05-14T11:40:20.082Z,9.45
2023-05-14T11:41:20.091Z,8.68
2023-05-14T11:42:20.094Z,7.05
2023-05-14T11:43:20.089Z,9.07
2023-05-14T11:44:20.058Z,8.61
2023-05-14T11:45:20.058Z,8.31
2023-05-14T11:46:20.200Z,15.14
2023-05-14T11:47:20.068Z,27.14
2023-05-14T11:48:20.157Z,25.66
2023-05-14T11:49:20.195Z,21.19
2023-05-14T11:50:20.217Z,16.38
2023-05-14T11:51:20.303Z,12.30
2023-05-14T11:52:20.296Z,10.62
2023-05-14T11:53:20.302Z,10.04
2023-05-14T11:54:20.298Z,10.31
2023-05-14T11:55:20.311Z,11.44
2023-05-14T11:56:20.322Z,9.54
2023-05-14T11:57:20.386Z,9.65
2023-05-14T11:58:20.406Z,10.52
2023-05-14T11:59:20.444Z,11.29
2023-05-14T12:00:20.544Z,15.12
2023-05-14T12:01:20.467Z,16.41
2023-05-14T12:02:20.501Z,11.46
2023-05-14T12:03:20.713Z,12.13
2023-05-14T12:04:20.564Z,11.26
2023-05-14T12:05:20.590Z,12.74
2023-05-14T12:06:20.581Z,13.23
2023-05-14T12:07:20.590Z,21.11
2023-05-14T12:08:20.600Z,34.09
2023-05-14T12:09:20.616Z,54.65
2023-05-14T12:10:20.666Z,63.08
2023-05-14T12:11:20.769Z,47.90
2023-05-14T12:12:20.752Z,36.44
2023-05-14T12:13:20.789Z,24.11
2023-05-14T12:14:20.839Z,26.47
2023-05-14T12:15:20.839Z,24.75
2023-05-14T12:16:20.885Z,16.30
2023-05-14T12:17:20.988Z,14.29
2023-05-14T12:18:24.564Z,15.27
2023-05-14T12:19:20.982Z,15.32
2023-05-14T12:20:20.956Z,15.27
2023-05-14T12:21:20.889Z,12.08
2023-05-14T12:22:20.917Z,11.81
2023-05-14T12:23:20.891Z,10.60
2023-05-14T12:24:20.893Z,12.30
2023-05-14T12:25:20.883Z,12.72
2023-05-14T12:26:20.870Z,11.39
2023-05-14T12:27:20.860Z,7.97
2023-05-14T12:28:20.864Z,9.35
2023-05-14T12:29:20.900Z,12.57
2023-05-14T12:30:22.142Z,9.15
2023-05-14T12:31:20.858Z,7.54